Time;durP1;ratioP1;P1;durP2;ratioP2;P2;SDS_P1;SDS_P2;PMS_P1;PMS_P2;Temp;Humidity;BMP_temperature;BMP_pressure;BME280_temperature;BME280_humidity;BME280_pressure;Samples;Min_cycle;Max_cycle;Signal;HPM_P1;HPM_P2
2021/08/26 00:07:40;;;;;;;13.52;6.40;;;18.20;99.90;;;;;;5095679;28;20142;-80
2021/08/26 00:10:10;;;;;;;;;;;18.30;99.90;;;;;;5095681;28;20040;-79
2021/08/26 00:12:38;;;;;;;18.52;6.50;;;18.10;99.90;;;;;;5095299;28;20284;-80
2021/08/26 00:15:05;;;;;;;13.43;7.15;;;17.80;99.90;;;;;;5095152;28;20103;-79
2021/08/26 00:17:31;;;;;;;13.90;6.45;;;17.90;99.90;;;;;;5095133;28;20024;-79
2021/08/26 00:19:57;;;;;;;;;;;17.90;99.90;;;;;;5095433;28;20534;-79
2021/08/26 00:22:23;;;;;;;13.05;5.95;;;18.00;99.90;;;;;;5095591;28;19982;-79
2021/08/26 00:24:48;;;;;;;;;;;18.00;99.90;;;;;;5077160;28;20021;-79
2021/08/26 00:27:14;;;;;;;15.85;6.65;;;18.10;99.90;;;;;;5094821;28;19912;-78
2021/08/26 00:29:39;;;;;;;;;;;18.00;99.90;;;;;;5077124;28;20399;-79
2021/08/26 00:32:06;;;;;;;16.95;7.57;;;18.10;99.90;;;;;;5094994;28;20310;-79
2021/08/26 00:34:31;;;;;;;16.17;7.22;;;18.10;99.90;;;;;;5095077;28;20087;-79
2021/08/26 00:36:57;;;;;;;;;;;18.20;99.90;;;;;;5095194;28;20497;-79
2021/08/26 00:39:23;;;;;;;17.15;6.72;;;18.00;99.90;;;;;;5094680;28;20283;-79
2021/08/26 00:41:49;;;;;;;;;;;18.00;99.90;;;;;;5095044;28;20053;-80
2021/08/26 00:44:16;;;;;;;13.65;6.95;;;18.00;99.90;;;;;;5094547;28;19908;-79
2021/08/26 00:46:46;;;;;;;16.27;7.22;;;17.90;99.90;;;;;;5094549;28;20031;-79
2021/08/26 00:49:13;;;;;;;15.07;6.90;;;17.80;99.90;;;;;;5094415;28;20481;-79
2021/08/26 00:51:40;;;;;;;19.55;8.02;;;17.70;99.90;;;;;;5094404;28;20016;-79
2021/08/26 00:54:06;;;;;;;13.93;7.28;;;17.60;99.90;;;;;;5094363;28;20016;-79
2021/08/26 00:56:32;;;;;;;19.30;7.97;;;17.50;99.90;;;;;;5094325;28;20020;-78
2021/08/26 00:59:00;;;;;;;;;;;17.50;99.90;;;;;;5094699;28;20028;-79
2021/08/26 01:01:36;;;;;;;15.55;8.52;;;17.50;99.90;;;;;;5094282;28;19982;-79
2021/08/26 01:04:35;;;;;;;14.93;7.60;;;17.30;99.90;;;;;;5075077;28;20048;-79
2021/08/26 01:07:03;;;;;;;16.55;6.97;;;17.30;99.90;;;;;;5094306;28;20140;-79
2021/08/26 01:09:41;;;;;;;16.38;7.90;;;17.40;99.90;;;;;;5094099;28;20558;-79
2021/08/26 01:12:09;;;;;;;15.65;7.68;;;17.40;99.90;;;;;;5094107;28;20379;-79
2021/08/26 01:14:37;;;;;;;16.00;7.28;;;17.50;99.90;;;;;;5093996;28;20483;-79
2021/08/26 01:17:03;;;;;;;15.25;7.63;;;17.50;99.90;;;;;;5075699;28;20522;-80
2021/08/26 01:19:29;;;;;;;14.70;7.65;;;17.50;99.90;;;;;;5094066;28;20506;-79
2021/08/26 01:21:55;;;;;;;;;;;17.40;99.90;;;;;;5094285;28;20099;-79
2021/08/26 01:24:23;;;;;;;15.43;8.40;;;17.10;99.90;;;;;;5094206;28;20261;-79
2021/08/26 01:26:55;;;;;;;16.05;7.68;;;17.00;99.90;;;;;;5093838;28;20021;-80
2021/08/26 01:29:22;;;;;;;15.55;7.80;;;16.80;99.90;;;;;;5093918;28;20024;-79
2021/08/26 01:31:48;;;;;;;17.17;8.90;;;16.80;99.90;;;;;;5093738;28;20384;-79
2021/08/26 01:34:14;;;;;;;;;;;16.80;99.90;;;;;;5094115;28;20028;-79
2021/08/26 01:36:40;;;;;;;18.20;8.27;;;16.80;99.90;;;;;;5093692;28;19911;-79
2021/08/26 01:39:07;;;;;;;;;;;16.90;99.90;;;;;;5094032;28;20025;-80
2021/08/26 01:41:51;;;;;;;13.98;8.02;;;16.80;99.90;;;;;;5093662;28;19904;-80
2021/08/26 01:44:18;;;;;;;14.25;8.43;;;16.80;99.90;;;;;;5093556;28;20031;-79
2021/08/26 01:46:44;;;;;;;17.08;8.23;;;17.10;99.90;;;;;;5093459;28;20032;-79
2021/08/26 01:49:10;;;;;;;;;;;17.30;99.90;;;;;;5093795;28;20031;-79
2021/08/26 01:51:37;;;;;;;14.18;7.53;;;17.10;99.90;;;;;;5093425;28;19904;-79
2021/08/26 01:54:03;;;;;;;15.43;7.63;;;17.00;99.90;;;;;;5075273;28;20021;-79
2021/08/26 01:56:29;;;;;;;15.55;7.97;;;17.00;99.90;;;;;;5093389;28;20369;-79
2021/08/26 01:58:56;;;;;;;;;;;16.90;99.90;;;;;;5093783;28;20035;-79
2021/08/26 02:01:22;;;;;;;14.95;7.82;;;16.90;99.90;;;;;;5075270;28;19938;-79
2021/08/26 02:03:47;;;;;;;;;;;16.80;99.90;;;;;;5093524;28;20044;-79
2021/08/26 02:06:13;;;;;;;14.27;7.25;;;16.90;99.90;;;;;;5093437;28;19991;-79
2021/08/26 02:08:39;;;;;;;;;;;17.00;99.90;;;;;;5093552;28;20028;-79
2021/08/26 02:11:04;;;;;;;13.38;8.02;;;17.00;99.90;;;;;;5109035;28;20313;-79
2021/08/26 02:13:30;;;;;;;15.48;8.05;;;16.80;99.90;;;;;;5093291;28;20495;-79
2021/08/26 02:15:56;;;;;;;;;;;16.60;99.90;;;;;;5096035;28;20020;-79
2021/08/26 02:18:21;;;;;;;15.05;7.75;;;16.50;99.90;;;;;;5097438;28;20272;-78
2021/08/26 02:20:47;;;;;;;;;;;16.40;99.90;;;;;;5098306;28;20021;-78
2021/08/26 02:23:13;;;;;;;17.95;9.07;;;16.40;99.90;;;;;;5097338;28;19904;-79
2021/08/26 02:25:38;;;;;;;;;;;16.40;99.90;;;;;;5079586;28;20356;-79
2021/08/26 02:28:04;;;;;;;20.77;8.38;;;16.20;99.90;;;;;;5097202;28;19911;-79
2021/08/26 02:30:30;;;;;;;;;;;16.30;99.90;;;;;;5079429;28;20039;-78
2021/08/26 02:32:56;;;;;;;16.92;8.30;;;16.50;99.90;;;;;;5097111;28;19986;-79
2021/08/26 02:35:21;;;;;;;;;;;16.40;99.90;;;;;;5079213;28;20024;-79
2021/08/26 02:37:47;;;;;;;13.57;7.40;;;16.50;99.90;;;;;;5097072;28;19904;-80
2021/08/26 02:40:12;;;;;;;;;;;16.40;99.90;;;;;;5097318;28;20020;-79
2021/08/26 02:42:38;;;;;;;16.95;8.00;;;16.50;99.90;;;;;;5097410;28;19905;-79
2021/08/26 02:45:04;;;;;;;;;;;16.70;99.90;;;;;;5097638;28;20080;-79
2021/08/26 02:47:30;;;;;;;13.50;7.53;;;16.60;99.90;;;;;;5096870;28;19908;-78
2021/08/26 02:49:56;;;;;;;;;;;16.50;99.90;;;;;;5097234;28;20016;-79
2021/08/26 02:52:21;;;;;;;15.05;7.38;;;16.30;99.90;;;;;;5096783;28;19904;-81
2021/08/26 02:54:47;;;;;;;15.63;7.72;;;16.10;99.90;;;;;;5096672;28;20020;-78
2021/08/26 02:57:13;;;;;;;17.33;9.10;;;16.00;99.90;;;;;;5096985;28;20060;-79
2021/08/26 02:59:39;;;;;;;;;;;16.00;99.90;;;;;;5097222;28;20015;-79
2021/08/26 03:02:04;;;;;;;16.30;9.25;;;15.80;99.90;;;;;;5078219;28;19904;-79
2021/08/26 03:04:30;;;;;;;14.43;7.60;;;15.80;99.90;;;;;;5096365;28;20052;-79
2021/08/26 03:06:56;;;;;;;;;;;15.80;99.90;;;;;;5096840;28;20107;-80
2021/08/26 03:09:22;;;;;;;17.58;8.43;;;15.90;99.90;;;;;;5096709;28;19908;-80
2021/08/26 03:11:47;;;;;;;17.50;8.75;;;15.90;99.90;;;;;;5096462;28;20035;-79
2021/08/26 03:14:13;;;;;;;;;;;15.80;99.90;;;;;;5096756;28;20020;-79
2021/08/26 03:16:39;;;;;;;15.45;8.57;;;15.80;99.90;;;;;;5111991;28;20003;-79
2021/08/26 03:19:04;;;;;;;;;;;15.70;99.90;;;;;;5096639;28;20028;-79
2021/08/26 03:21:30;;;;;;;14.98;8.55;;;15.70;99.90;;;;;;5096207;28;19904;-79
2021/08/26 03:23:56;;;;;;;;;;;15.70;99.90;;;;;;5096519;28;20039;-79
2021/08/26 03:26:21;;;;;;;17.15;8.85;;;15.70;99.90;;;;;;5077315;28;19919;-80
2021/08/26 03:28:47;;;;;;;;;;;15.80;99.90;;;;;;5096393;28;20066;-79
2021/08/26 03:31:14;;;;;;;17.23;9.35;;;15.90;99.90;;;;;;5096429;28;19904;-78
2021/08/26 03:33:39;;;;;;;17.55;9.00;;;15.70;99.90;;;;;;5096131;28;20024;-79
2021/08/26 03:36:05;;;;;;;;;;;15.50;99.90;;;;;;5096384;28;20042;-79
2021/08/26 03:38:31;;;;;;;13.65;7.78;;;15.60;99.90;;;;;;5095969;28;20319;-79
2021/08/26 03:40:56;;;;;;;;;;;15.50;99.90;;;;;;5096284;28;20040;-78
2021/08/26 03:43:23;;;;;;;16.58;8.02;;;15.60;99.90;;;;;;5096283;28;19939;-79
2021/08/26 03:45:49;;;;;;;17.08;9.35;;;15.50;99.90;;;;;;5077604;28;20408;-79
2021/08/26 03:48:14;;;;;;;;;;;15.50;99.90;;;;;;5077862;28;20032;-78
2021/08/26 03:50:40;;;;;;;14.50;7.57;;;15.60;99.90;;;;;;5095758;28;20275;-79
2021/08/26 03:53:06;;;;;;;14.48;8.15;;;15.50;99.90;;;;;;5095699;28;20054;-79
2021/08/26 03:55:32;;;;;;;16.92;8.60;;;15.50;99.90;;;;;;5095551;28;20430;-78
2021/08/26 03:57:57;;;;;;;15.05;7.95;;;15.50;99.90;;;;;;5095555;28;20028;-79
2021/08/26 04:00:23;;;;;;;;;;;15.70;99.90;;;;;;5095884;28;20449;-78
2021/08/26 04:02:49;;;;;;;17.48;7.90;;;15.70;99.90;;;;;;5095198;28;19916;-80
2021/08/26 04:05:15;;;;;;;14.68;7.13;;;15.90;99.90;;;;;;5095442;28;20502;-78
2021/08/26 04:07:40;;;;;;;16.35;6.85;;;15.90;99.90;;;;;;5095389;28;20028;-79
2021/08/26 04:10:06;;;;;;;;;;;15.80;99.90;;;;;;5096023;28;20056;-79
2021/08/26 04:12:32;;;;;;;;;;;15.80;99.90;;;;;;5111370;28;19910;-80
2021/08/26 04:14:58;;;;;;;15.45;8.32;;;15.80;99.90;;;;;;5095602;28;19990;-79
2021/08/26 04:17:24;;;;;;;15.38;7.22;;;15.70;99.90;;;;;;5095139;28;20384;-78
2021/08/26 04:19:49;;;;;;;;;;;15.40;99.90;;;;;;5095505;28;20026;-79
2021/08/26 04:22:15;;;;;;;18.67;9.60;;;15.20;99.90;;;;;;5095157;28;19904;-79
2021/08/26 04:24:41;;;;;;;;;;;15.10;99.90;;;;;;5077181;28;20125;-79
2021/08/26 04:27:07;;;;;;;16.75;9.43;;;15.00;99.90;;;;;;5095082;28;19943;-79
2021/08/26 04:29:33;;;;;;;;;;;15.00;99.90;;;;;;5095375;28;20058;-80
2021/08/26 04:31:58;;;;;;;14.95;8.02;;;15.10;99.90;;;;;;5076775;28;20403;-79
2021/08/26 04:34:24;;;;;;;18.67;8.65;;;15.20;99.90;;;;;;5094823;28;20032;-79
2021/08/26 04:36:50;;;;;;;17.30;8.23;;;15.50;99.90;;;;;;5094674;28;20024;-79
2021/08/26 04:39:16;;;;;;;13.07;7.78;;;15.70;99.90;;;;;;5093879;28;20429;-78
2021/08/26 04:41:43;;;;;;;;;;;15.70;99.90;;;;;;5095083;28;20024;-79
2021/08/26 04:44:09;;;;;;;14.35;8.63;;;15.60;99.90;;;;;;5094667;28;20386;-79
2021/08/26 04:46:35;;;;;;;17.60;7.72;;;15.20;99.90;;;;;;5094526;28;20147;-79
2021/08/26 04:49:01;;;;;;;15.85;8.70;;;15.10;99.90;;;;;;5094785;28;20035;-79
2021/08/26 04:51:27;;;;;;;18.80;9.73;;;15.20;99.90;;;;;;5094403;28;20138;-79
2021/08/26 04:53:53;;;;;;;;;;;15.10;99.90;;;;;;5076666;28;20103;-80
2021/08/26 04:56:18;;;;;;;15.60;8.07;;;15.10;99.90;;;;;;5094394;28;19995;-79
2021/08/26 04:58:44;;;;;;;16.25;7.95;;;15.00;99.90;;;;;;5094517;28;20036;-80
2021/08/26 05:01:10;;;;;;;;;;;15.20;99.90;;;;;;5094858;28;20515;-79
2021/08/26 05:03:35;;;;;;;12.55;7.20;;;15.20;99.90;;;;;;5094042;28;19916;-78
2021/08/26 05:06:05;;;;;;;;;;;15.20;99.90;;;;;;5094676;28;20077;-79
2021/08/26 05:08:31;;;;;;;18.90;7.65;;;15.20;99.90;;;;;;5075849;28;20287;-78
2021/08/26 05:10:57;;;;;;;35.67;8.18;;;15.00;99.90;;;;;;5094111;28;20521;-79
2021/08/26 05:13:23;;;;;;;32.67;9.13;;;14.80;99.90;;;;;;5075940;28;20028;-79
2021/08/26 05:15:49;;;;;;;;;;;14.80;99.90;;;;;;5094516;28;20426;-79
2021/08/26 05:18:14;;;;;;;18.23;8.07;;;14.80;99.90;;;;;;5094261;28;19999;-79
2021/08/26 05:20:40;;;;;;;;;;;14.80;99.90;;;;;;5094389;28;20024;-78
2021/08/26 05:23:06;;;;;;;14.05;5.88;;;15.00;99.90;;;;;;5094169;28;20279;-79
2021/08/26 05:25:33;;;;;;;10.32;5.80;;;15.20;99.90;;;;;;5093835;28;20055;-80
2021/08/26 05:27:58;;;;;;;14.63;5.95;;;15.30;99.90;;;;;;5093751;28;20028;-79
2021/08/26 05:30:24;;;;;;;;;;;15.20;99.90;;;;;;5094383;28;20028;-78
2021/08/26 05:32:50;;;;;;;14.90;6.53;;;15.00;99.90;;;;;;5093941;28;19958;-79
2021/08/26 05:35:16;;;;;;;14.25;7.55;;;14.70;99.90;;;;;;5075548;28;20074;-79
2021/08/26 05:37:41;;;;;;;;;;;14.60;99.90;;;;;;5094090;28;20020;-79
2021/08/26 05:40:08;;;;;;;13.60;7.88;;;14.50;99.90;;;;;;5093683;28;19969;-79
2021/08/26 05:42:34;;;;;;;13.95;7.75;;;14.40;99.90;;;;;;5094073;28;20086;-78
2021/08/26 05:44:59;;;;;;;;;;;14.30;99.90;;;;;;5094350;28;20024;-79
2021/08/26 05:47:25;;;;;;;13.93;8.70;;;14.20;99.90;;;;;;5093673;28;19912;-79
2021/08/26 05:49:51;;;;;;;16.50;8.60;;;14.20;99.90;;;;;;5093290;28;20016;-79
2021/08/26 05:52:17;;;;;;;15.45;8.00;;;14.50;99.90;;;;;;5075329;28;20426;-79
2021/08/26 05:54:42;;;;;;;;;;;14.60;99.90;;;;;;5094073;28;20055;-79
2021/08/26 05:57:08;;;;;;;18.33;8.60;;;14.90;99.90;;;;;;5093723;28;19911;-79
2021/08/26 05:59:33;;;;;;;;;;;15.20;99.90;;;;;;5094039;28;20468;-78
2021/08/26 06:02:01;;;;;;;14.77;6.10;;;15.50;99.90;;;;;;5093549;28;20298;-79
2021/08/26 06:04:27;;;;;;;13.18;6.05;;;15.70;99.90;;;;;;5074877;28;20051;-79
2021/08/26 06:06:52;;;;;;;12.20;6.35;;;15.70;99.90;;;;;;5093804;28;20024;-79
2021/08/26 06:09:18;;;;;;;;;;;15.70;99.90;;;;;;5093670;28;20368;-80
2021/08/26 06:11:44;;;;;;;18.58;6.85;;;15.70;99.90;;;;;;5093307;28;19957;-79
2021/08/26 06:14:10;;;;;;;;;;;15.40;99.90;;;;;;5093701;28;20375;-79
2021/08/26 06:16:36;;;;;;;11.20;6.55;;;15.60;99.90;;;;;;5093278;28;19904;-78
2021/08/26 06:19:01;;;;;;;;;;;15.70;99.90;;;;;;5075456;28;20028;-79
2021/08/26 06:21:27;;;;;;;15.70;8.38;;;16.00;99.90;;;;;;5093307;28;19939;-79
2021/08/26 06:23:53;;;;;;;;;;;16.10;99.90;;;;;;5093467;28;20021;-79
2021/08/26 06:26:19;;;;;;;16.20;8.15;;;16.20;99.90;;;;;;5093224;28;20374;-79
2021/08/26 06:28:44;;;;;;;;;;;16.60;99.90;;;;;;5093357;28;20034;-80
2021/08/26 06:31:10;;;;;;;15.43;8.38;;;17.00;99.90;;;;;;5093526;28;19911;-80
2021/08/26 06:33:36;;;;;;;12.15;7.10;;;17.30;99.90;;;;;;5093218;28;20078;-79
2021/08/26 06:36:02;;;;;;;13.55;7.20;;;17.70;99.90;;;;;;5093097;28;20052;-80
2021/08/26 06:38:28;;;;;;;12.82;7.53;;;18.40;99.90;;;;;;5093058;28;20043;-79
2021/08/26 06:40:54;;;;;;;13.50;7.15;;;18.50;99.90;;;;;;5093063;28;20182;-80
2021/08/26 06:43:20;;;;;;;14.63;7.32;;;18.60;99.90;;;;;;5093044;28;20020;-80
2021/08/26 06:45:45;;;;;;;16.60;6.95;;;19.00;99.90;;;;;;5092977;28;20024;-80
2021/08/26 06:48:11;;;;;;;17.67;7.22;;;19.30;99.90;;;;;;5092895;28;20062;-80
2021/08/26 06:50:37;;;;;;;15.73;6.68;;;19.40;99.90;;;;;;5074879;28;20111;-79
2021/08/26 06:53:03;;;;;;;18.02;7.07;;;19.30;99.90;;;;;;5093115;28;20099;-79
2021/08/26 06:55:29;;;;;;;15.00;7.50;;;19.10;99.90;;;;;;5093119;28;20395;-80
2021/08/26 06:57:54;;;;;;;13.75;6.90;;;19.20;99.90;;;;;;5092801;28;20024;-79
2021/08/26 07:00:20;;;;;;;12.88;6.97;;;19.00;99.90;;;;;;5092823;28;20031;-79
2021/08/26 07:02:46;;;;;;;13.75;6.78;;;19.00;99.90;;;;;;5096393;28;20040;-79
2021/08/26 07:05:12;;;;;;;15.30;6.10;;;19.10;99.90;;;;;;5096237;28;20035;-79
2021/08/26 07:07:38;;;;;;;12.60;5.93;;;19.10;99.90;;;;;;5096429;28;20436;-80
2021/08/26 07:10:04;;;;;;;13.25;5.97;;;19.60;99.90;;;;;;5078291;28;20027;-80
2021/08/26 07:12:31;;;;;;;13.02;6.15;;;20.00;99.90;;;;;;5096369;28;20035;-80
2021/08/26 07:15:01;;;;;;;16.50;6.32;;;19.60;99.90;;;;;;5078218;28;20491;-79
2021/08/26 07:17:27;;;;;;;12.23;5.60;;;19.80;99.90;;;;;;5078171;28;20073;-80
2021/08/26 07:19:52;;;;;;;11.10;5.65;;;19.90;99.90;;;;;;5096288;28;20024;-80
2021/08/26 07:22:18;;;;;;;10.77;4.80;;;20.40;99.90;;;;;;5096235;28;20484;-80
2021/08/26 07:24:44;;;;;;;10.50;4.85;;;20.80;99.90;;;;;;5096256;28;20032;-80
2021/08/26 07:27:10;;;;;;;9.80;4.60;;;21.20;99.90;;;;;;5096083;28;20492;-79
2021/08/26 07:29:37;;;;;;;10.88;4.80;;;21.20;99.90;;;;;;5096208;28;20053;-80
2021/08/26 07:32:04;;;;;;;10.82;5.13;;;21.40;99.90;;;;;;5077778;28;20028;-80
2021/08/26 07:34:30;;;;;;;10.80;4.07;;;21.50;99.90;;;;;;5095853;28;20107;-79
2021/08/26 07:36:56;;;;;;;9.38;3.80;;;22.00;99.90;;;;;;5095916;28;20116;-79
2021/08/26 07:39:22;;;;;;;8.35;4.00;;;22.50;99.90;;;;;;5095899;28;20024;-80
2021/08/26 07:41:48;;;;;;;10.13;4.13;;;22.40;99.90;;;;;;5077639;28;20508;-80
2021/08/26 07:44:13;;;;;;;10.23;4.15;;;22.40;99.90;;;;;;5096015;28;20074;-80
2021/08/26 07:46:39;;;;;;;8.80;4.10;;;22.90;99.90;;;;;;5095853;28;20028;-80
2021/08/26 07:49:06;;;;;;;9.07;3.80;;;23.60;98.60;;;;;;5095644;28;20024;-80
2021/08/26 07:51:32;;;;;;;10.43;3.83;;;24.30;97.10;;;;;;5095699;28;20017;-81
2021/08/26 07:53:59;;;;;;;9.88;4.20;;;24.40;96.60;;;;;;5095620;28;20031;-80
2021/08/26 07:56:25;;;;;;;9.88;3.92;;;24.10;96.50;;;;;;5077335;28;20392;-80
2021/08/26 07:58:50;;;;;;;9.10;4.20;;;24.30;96.40;;;;;;5095488;28;20040;-80
2021/08/26 08:01:16;;;;;;;9.60;3.70;;;24.40;95.30;;;;;;5095408;28;20024;-80
2021/08/26 08:03:42;;;;;;;10.18;3.50;;;24.70;95.10;;;;;;5095140;28;20184;-80
2021/08/26 08:06:08;;;;;;;9.20;3.30;;;24.80;95.00;;;;;;5095334;28;20055;-80
2021/08/26 08:08:34;;;;;;;6.38;2.92;;;25.90;93.50;;;;;;5095315;28;20039;-80
2021/08/26 08:11:00;;;;;;;9.45;3.33;;;26.40;92.90;;;;;;5095277;28;20021;-81
2021/08/26 08:13:25;;;;;;;10.00;3.40;;;27.10;90.60;;;;;;5077015;28;20028;-80
2021/08/26 08:15:51;;;;;;;15.82;3.60;;;27.50;89.40;;;;;;5095205;28;20024;-81
2021/08/26 08:18:17;;;;;;;9.75;3.40;;;26.90;88.60;;;;;;5095103;28;20074;-81
2021/08/26 08:20:43;;;;;;;8.63;3.28;;;26.60;87.50;;;;;;5095101;28;20023;-80
2021/08/26 08:23:09;;;;;;;8.68;3.00;;;26.60;88.30;;;;;;5076912;28;20020;-82
2021/08/26 08:25:35;;;;;;;7.45;3.03;;;26.60;88.30;;;;;;5094910;28;20103;-80
2021/08/26 08:28:01;;;;;;;6.25;2.80;;;27.10;88.10;;;;;;5094988;28;20028;-80
2021/08/26 08:30:27;;;;;;;12.07;3.40;;;28.50;85.60;;;;;;5076736;28;20039;-81
2021/08/26 08:32:54;;;;;;;10.82;3.35;;;29.30;80.00;;;;;;5076475;28;20024;-81
2021/08/26 08:35:23;;;;;;;8.27;3.10;;;28.80;77.30;;;;;;5095027;28;20020;-80
2021/08/26 08:37:50;;;;;;;8.82;2.88;;;28.00;80.30;;;;;;5094742;28;20529;-81
2021/08/26 08:40:16;;;;;;;9.10;3.25;;;28.20;79.90;;;;;;5094648;28;20012;-80
2021/08/26 08:42:45;;;;;;;19.25;3.47;;;28.60;78.30;;;;;;5094676;28;20016;-81
2021/08/26 08:45:11;;;;;;;8.98;2.92;;;29.30;75.80;;;;;;5076427;28;20024;-81
2021/08/26 08:47:39;;;;;;;11.25;3.30;;;29.40;74.40;;;;;;5094657;28;20472;-81
2021/08/26 08:50:09;;;;;;;9.48;3.08;;;29.30;73.10;;;;;;5076345;28;20176;-80
2021/08/26 08:52:37;;;;;;;10.57;3.00;;;29.20;72.90;;;;;;5076266;28;20020;-81
2021/08/26 08:55:09;;;;;;;9.32;3.00;;;29.30;72.70;;;;;;5094485;28;20043;-81
2021/08/26 08:57:41;;;;;;;8.77;3.08;;;30.70;69.80;;;;;;5094732;28;20028;-81
2021/08/26 09:00:09;;;;;;;9.82;3.20;;;30.50;69.20;;;;;;5094521;28;20103;-82
2021/08/26 09:02:35;;;;;;;8.73;2.83;;;30.20;69.70;;;;;;5093935;28;20044;-81
2021/08/26 09:05:02;;;;;;;8.80;2.80;;;31.40;66.30;;;;;;5094240;28;20510;-82
2021/08/26 09:07:33;;;;;;;9.02;2.90;;;31.50;64.00;;;;;;5094079;28;20028;-81
2021/08/26 09:09:59;;;;;;;7.28;2.60;;;32.50;61.60;;;;;;5075760;28;20131;-82
2021/08/26 09:12:42;;;;;;;8.30;2.58;;;32.70;60.20;;;;;;5076073;28;20043;-82
2021/08/26 09:15:11;;;;;;;8.13;2.60;;;33.60;57.60;;;;;;5075873;28;20478;-81
2021/08/26 09:17:38;;;;;;;6.28;2.42;;;32.70;57.50;;;;;;5075733;28;20127;-81
2021/08/26 09:20:10;;;;;;;10.05;3.13;;;33.30;57.60;;;;;;5075839;28;20026;-82
2021/08/26 09:22:36;;;;;;;8.00;2.90;;;33.90;54.50;;;;;;5094429;28;20024;-82
2021/08/26 09:25:04;;;;;;;9.93;3.17;;;34.50;54.10;;;;;;5075133;28;20024;-81
2021/08/26 09:27:39;;;;;;;11.43;3.10;;;34.90;53.00;;;;;;5093999;28;20031;-82
2021/08/26 09:30:13;;;;;;;6.70;2.65;;;34.30;52.50;;;;;;5093875;28;20427;-82
2021/08/26 09:32:42;;;;;;;6.93;2.72;;;33.80;52.70;;;;;;5094109;28;20108;-80
2021/08/26 09:35:10;;;;;;;7.10;3.00;;;33.50;53.40;;;;;;5093735;28;20019;-81
2021/08/26 09:37:54;;;;;;;9.13;2.88;;;33.70;52.50;;;;;;5093789;28;20107;-80
2021/08/26 09:40:33;;;;;;;7.72;2.70;;;34.80;51.80;;;;;;5093695;28;20027;-81
2021/08/26 09:43:01;;;;;;;6.38;2.65;;;35.90;50.20;;;;;;5093925;28;20036;-81
2021/08/26 09:45:33;;;;;;;6.22;2.80;;;37.10;49.40;;;;;;5093895;28;20020;-82
2021/08/26 09:48:05;;;;;;;8.43;2.75;;;38.90;45.80;;;;;;5093581;28;20107;-81
2021/08/26 09:50:44;;;;;;;10.95;2.55;;;39.90;44.00;;;;;;5093582;28;20050;-81
2021/08/26 09:53:33;;;;;;;20.60;3.40;;;37.20;44.30;;;;;;5093495;28;20028;-82
2021/08/26 09:56:04;;;;;;;9.45;3.42;;;37.30;45.20;;;;;;5093433;28;20383;-82
2021/08/26 09:58:34;;;;;;;7.97;3.00;;;37.60;45.20;;;;;;5075173;28;20024;-82
2021/08/26 10:01:09;;;;;;;11.23;3.50;;;37.70;44.60;;;;;;5093434;28;20023;-82
2021/08/26 10:03:35;;;;;;;6.88;2.80;;;37.00;45.50;;;;;;5093259;28;20072;-81
2021/08/26 10:06:01;;;;;;;11.90;3.22;;;39.40;43.70;;;;;;5093451;28;20066;-81
2021/08/26 10:08:29;;;;;;;7.97;2.80;;;40.60;41.20;;;;;;5093278;28;20028;-82
2021/08/26 10:10:56;;;;;;;7.13;3.30;;;40.70;40.20;;;;;;5075276;28;20184;-82
2021/08/26 10:13:22;;;;;;;8.10;3.42;;;40.70;41.40;;;;;;5075173;28;20533;-82
2021/08/26 10:15:48;;;;;;;12.40;3.70;;;43.50;39.50;;;;;;5093247;28;20024;-82
2021/08/26 10:18:17;;;;;;;8.15;3.70;;;44.10;37.80;;;;;;5093145;28;20077;-83
2021/08/26 10:20:44;;;;;;;6.25;3.30;;;43.20;37.50;;;;;;5075090;28;20027;-82
2021/08/26 10:23:10;;;;;;;7.10;2.60;;;42.40;38.40;;;;;;5075039;28;20507;-82
2021/08/26 10:25:40;;;;;;;7.25;2.67;;;40.00;39.30;;;;;;5093087;28;20020;-81
2021/08/26 10:28:08;;;;;;;8.13;2.92;;;38.10;41.80;;;;;;5093118;28;20066;-81
2021/08/26 10:30:36;;;;;;;10.68;3.25;;;40.50;39.90;;;;;;5075027;28;20028;-82
2021/08/26 10:33:10;;;;;;;7.88;2.90;;;38.50;41.80;;;;;;5093101;28;20050;-82
2021/08/26 10:35:58;;;;;;;7.75;3.25;;;39.80;40.20;;;;;;5075018;28;20115;-82
2021/08/26 10:38:28;;;;;;;8.32;3.65;;;41.80;39.40;;;;;;5069127;28;20036;-82
2021/08/26 10:41:18;;;;;;;9.48;3.40;;;43.40;38.10;;;;;;5078873;28;20140;-82
2021/08/26 10:43:53;;;;;;;7.03;3.40;;;43.00;37.30;;;;;;5078264;28;20032;-83
2021/08/26 10:46:46;;;;;;;9.27;3.47;;;43.00;37.10;;;;;;5097122;28;20052;-82
2021/08/26 10:49:11;;;;;;;9.75;3.60;;;43.00;37.80;;;;;;5096975;28;20031;-82
2021/08/26 10:51:43;;;;;;;8.57;3.28;;;41.70;38.80;;;;;;5078903;28;20024;-82
2021/08/26 10:54:29;;;;;;;6.43;3.28;;;40.40;38.30;;;;;;5078517;28;20084;-82
2021/08/26 10:56:57;;;;;;;7.20;3.40;;;43.10;37.90;;;;;;5096723;28;20024;-82
2021/08/26 10:59:29;;;;;;;8.10;3.70;;;42.50;37.70;;;;;;5078529;28;20032;-82
2021/08/26 11:01:55;;;;;;;8.70;3.17;;;43.00;37.80;;;;;;5078461;28;20046;-81
2021/08/26 11:04:27;;;;;;;9.55;2.83;;;38.80;39.30;;;;;;5096156;28;20047;-81
2021/08/26 11:06:54;;;;;;;9.65;2.95;;;35.20;43.50;;;;;;5096787;28;20016;-80
2021/08/26 11:09:28;;;;;;;8.50;3.13;;;34.10;45.20;;;;;;5078263;28;20028;-81
2021/08/26 11:12:05;;;;;;;7.25;2.67;;;32.50;47.90;;;;;;5078010;28;20020;-81
2021/08/26 11:14:33;;;;;;;9.93;3.00;;;31.50;49.80;;;;;;5096557;28;20432;-80
2021/08/26 11:17:04;;;;;;;9.25;3.00;;;31.40;50.30;;;;;;5096600;28;20020;-80
2021/08/26 11:19:38;;;;;;;7.38;2.90;;;31.00;50.10;;;;;;5096511;28;20030;-80
2021/08/26 11:22:10;;;;;;;8.10;3.17;;;29.70;53.40;;;;;;5096650;28;20082;-81
2021/08/26 11:24:35;;;;;;;10.52;3.40;;;29.30;54.60;;;;;;5096272;28;20035;-81
2021/08/26 11:27:18;;;;;;;8.38;3.10;;;28.70;55.50;;;;;;5096203;28;20020;-80
2021/08/26 11:29:44;;;;;;;10.40;3.75;;;28.50;56.40;;;;;;5096375;28;20032;-81
2021/08/26 11:32:12;;;;;;;9.95;3.15;;;28.20;57.80;;;;;;5077977;28;20032;-80
2021/08/26 11:34:38;;;;;;;7.22;3.25;;;28.20;58.70;;;;;;5096084;28;20032;-80
2021/08/26 11:37:28;;;;;;;9.15;3.67;;;28.10;58.60;;;;;;5077819;28;20119;-81
2021/08/26 11:39:57;;;;;;;10.20;3.72;;;27.60;60.00;;;;;;5096109;28;20505;-80
2021/08/26 11:42:32;;;;;;;7.60;3.35;;;27.50;61.30;;;;;;5077790;28;20028;-80
2021/08/26 11:45:17;;;;;;;9.55;3.60;;;27.50;61.20;;;;;;5077467;28;20026;-79
2021/08/26 11:47:50;;;;;;;34.42;4.88;;;27.00;62.60;;;;;;5095537;28;20468;-80
2021/08/26 11:50:30;;;;;;;9.10;3.40;;;26.80;63.50;;;;;;5095966;28;20056;-81
2021/08/26 11:53:07;;;;;;;12.80;4.00;;;26.70;64.00;;;;;;5095643;28;20032;-81
2021/08/26 11:55:38;;;;;;;12.20;4.00;;;26.80;65.30;;;;;;5095999;28;20031;-80
2021/08/26 11:58:07;;;;;;;16.00;6.07;;;27.30;63.70;;;;;;5095645;28;20085;-79
2021/08/26 12:00:34;;;;;;;11.45;3.88;;;26.90;64.90;;;;;;5095553;28;20027;-80
2021/08/26 12:03:01;;;;;;;8.23;3.85;;;26.30;67.10;;;;;;5077115;28;20048;-80
2021/08/26 12:05:28;;;;;;;9.02;4.13;;;26.40;66.50;;;;;;5095602;28;20573;-80
2021/08/26 12:07:56;;;;;;;10.10;4.28;;;26.30;67.40;;;;;;5077227;28;20418;-80
2021/08/26 12:10:26;;;;;;;11.00;3.88;;;26.50;67.10;;;;;;5077182;28;20388;-80
2021/08/26 12:12:55;;;;;;;9.65;4.00;;;26.50;67.20;;;;;;5095599;28;20032;-80
2021/08/26 12:15:36;;;;;;;11.85;4.22;;;26.20;67.60;;;;;;5095195;28;20027;-80
2021/08/26 12:18:13;;;;;;;8.63;3.50;;;26.00;67.90;;;;;;5095294;28;20472;-81
2021/08/26 12:20:43;;;;;;;14.18;4.63;;;26.10;68.80;;;;;;5076915;28;20028;-80
2021/08/26 12:23:13;;;;;;;13.82;4.30;;;26.00;68.00;;;;;;5095086;28;20500;-80
2021/08/26 12:25:39;;;;;;;11.32;4.35;;;25.90;68.50;;;;;;5076762;28;20012;-80
2021/08/26 12:28:08;;;;;;;11.10;4.47;;;26.10;69.00;;;;;;5094932;28;20051;-80
2021/08/26 12:30:44;;;;;;;9.80;5.13;;;26.30;67.40;;;;;;5094853;28;20024;-81
2021/08/26 12:33:15;;;;;;;9.38;4.60;;;26.00;68.10;;;;;;5095717;28;20107;-80
2021/08/26 12:35:44;;;;;;;8.35;4.32;;;26.30;68.80;;;;;;5076614;28;20028;-80
2021/08/26 12:38:11;;;;;;;9.85;4.40;;;26.30;68.40;;;;;;5076573;28;20023;-80
2021/08/26 12:40:55;;;;;;;18.17;5.85;;;26.20;68.40;;;;;;5094709;28;20031;-80
2021/08/26 12:43:26;;;;;;;17.20;5.00;;;26.00;68.70;;;;;;5094970;28;20075;-81
2021/08/26 12:46:06;;;;;;;11.05;4.57;;;26.00;69.70;;;;;;5094643;28;20124;-80
2021/08/26 12:48:36;;;;;;;10.00;4.35;;;26.10;68.40;;;;;;5094656;28;20063;-80
2021/08/26 12:51:12;;;;;;;12.32;4.70;;;25.90;68.40;;;;;;5076206;28;20492;-80
2021/08/26 12:53:40;;;;;;;8.68;4.45;;;25.70;69.80;;;;;;5094528;28;20099;-79
2021/08/26 12:56:12;;;;;;;12.68;4.30;;;25.40;71.40;;;;;;5094533;28;20373;-80
2021/08/26 12:58:38;;;;;;;8.63;4.10;;;25.70;71.20;;;;;;5093606;28;20107;-80
2021/08/26 13:01:24;;;;;;;37.85;6.15;;;25.90;70.80;;;;;;5094356;28;20023;-80
2021/08/26 13:03:58;;;;;;;10.98;4.35;;;25.80;70.20;;;;;;5094296;28;20400;-80
2021/08/26 13:06:41;;;;;;;9.38;4.03;;;25.10;71.40;;;;;;5094423;28;20021;-80